sensor_id;sensor_type;location;lat;lon;timestamp;P1;durP1;ratioP1;P2;durP2;ratioP2
54123;SDS011;55741;53.252;5.788;2023-05-10T00:01:59;4.45;;;4.05;;
54123;SDS011;55741;53.252;5.788;2023-05-10T00:04:25;4.43;;;4.03;;
54123;SDS011;55741;53.252;5.788;2023-05-10T00:06:53;4.22;;;3.83;;
54123;SDS011;55741;53.252;5.788;2023-05-10T00:09:19;3.92;;;3.53;;
54123;SDS011;55741;53.252;5.788;2023-05-10T00:11:46;5.18;;;4.20;;
54123;SDS011;55741;53.252;5.788;2023-05-10T00:14:12;4.72;;;4.22;;
54123;SDS011;55741;53.252;5.788;2023-05-10T00:16:38;6.55;;;5.05;;
54123;SDS011;55741;53.252;5.788;2023-05-10T00:19:04;5.70;;;5.20;;
54123;SDS011;55741;53.252;5.788;2023-05-10T00:21:32;6.45;;;5.85;;
54123;SDS011;55741;53.252;5.788;2023-05-10T00:23:59;6.88;;;6.28;;
54123;SDS011;55741;53.252;5.788;2023-05-10T00:26:25;7.72;;;7.03;;
54123;SDS011;55741;53.252;5.788;2023-05-10T00:28:51;8.82;;;7.95;;
54123;SDS011;55741;53.252;5.788;2023-05-10T00:31:16;9.48;;;8.68;;
54123;SDS011;55741;53.252;5.788;2023-05-10T00:33:42;9.45;;;8.65;;
54123;SDS011;55741;53.252;5.788;2023-05-10T00:36:08;10.93;;;9.93;;
54123;SDS011;55741;53.252;5.788;2023-05-10T00:38:34;11.98;;;10.88;;
54123;SDS011;55741;53.252;5.788;2023-05-10T00:41:00;11.48;;;10.43;;
54123;SDS011;55741;53.252;5.788;2023-05-10T00:43:26;12.23;;;10.93;;
54123;SDS011;55741;53.252;5.788;2023-05-10T00:45:52;12.70;;;11.40;;
54123;SDS011;55741;53.252;5.788;2023-05-10T00:48:18;13.10;;;11.88;;
54123;SDS011;55741;53.252;5.788;2023-05-10T00:50:44;14.38;;;12.98;;
54123;SDS011;55741;53.252;5.788;2023-05-10T00:53:11;13.55;;;12.15;;
54123;SDS011;55741;53.252;5.788;2023-05-10T00:55:39;13.20;;;12.00;;
54123;SDS011;55741;53.252;5.788;2023-05-10T00:58:05;13.85;;;12.55;;
54123;SDS011;55741;53.252;5.788;2023-05-10T01:00:32;16.73;;;14.18;;
54123;SDS011;55741;53.252;5.788;2023-05-10T01:03:02;24.73;;;18.38;;
54123;SDS011;55741;53.252;5.788;2023-05-10T01:05:28;39.47;;;23.55;;
54123;SDS011;55741;53.252;5.788;2023-05-10T01:07:55;39.28;;;21.10;;
54123;SDS011;55741;53.252;5.788;2023-05-10T01:10:21;64.63;;;22.92;;
54123;SDS011;55741;53.252;5.788;2023-05-10T01:12:52;43.22;;;22.23;;
54123;SDS011;55741;53.252;5.788;2023-05-10T01:15:18;41.40;;;19.65;;
54123;SDS011;55741;53.252;5.788;2023-05-10T01:17:46;43.65;;;18.05;;
54123;SDS011;55741;53.252;5.788;2023-05-10T01:20:13;42.63;;;19.50;;
54123;SDS011;55741;53.252;5.788;2023-05-10T01:22:52;39.50;;;19.45;;
54123;SDS011;55741;53.252;5.788;2023-05-10T01:26:00;31.30;;;17.67;;
54123;SDS011;55741;53.252;5.788;2023-05-10T01:34:24;22.75;;;17.38;;
54123;SDS011;55741;53.252;5.788;2023-05-10T01:37:01;25.80;;;17.38;;
54123;SDS011;55741;53.252;5.788;2023-05-10T01:42:29;11.02;;;9.70;;
54123;SDS011;55741;53.252;5.788;2023-05-10T01:47:58;7.55;;;6.85;;
54123;SDS011;55741;53.252;5.788;2023-05-10T01:50:38;5.35;;;4.75;;
54123;SDS011;55741;53.252;5.788;2023-05-10T01:53:07;5.38;;;4.88;;
54123;SDS011;55741;53.252;5.788;2023-05-10T01:55:38;5.03;;;4.30;;
54123;SDS011;55741;53.252;5.788;2023-05-10T01:58:13;3.30;;;3.00;;
54123;SDS011;55741;53.252;5.788;2023-05-10T02:00:42;3.97;;;3.45;;
54123;SDS011;55741;53.252;5.788;2023-05-10T02:05:43;3.97;;;3.47;;
54123;SDS011;55741;53.252;5.788;2023-05-10T02:08:11;4.60;;;3.60;;
54123;SDS011;55741;53.252;5.788;2023-05-10T02:10:39;3.47;;;2.85;;
54123;SDS011;55741;53.252;5.788;2023-05-10T02:13:10;3.58;;;3.10;;
54123;SDS011;55741;53.252;5.788;2023-05-10T02:15:38;2.90;;;2.60;;
54123;SDS011;55741;53.252;5.788;2023-05-10T02:18:08;5.78;;;2.90;;
54123;SDS011;55741;53.252;5.788;2023-05-10T02:20:36;3.38;;;2.95;;
54123;SDS011;55741;53.252;5.788;2023-05-10T02:23:03;3.47;;;2.78;;
54123;SDS011;55741;53.252;5.788;2023-05-10T02:25:30;4.15;;;3.15;;
54123;SDS011;55741;53.252;5.788;2023-05-10T02:28:02;4.60;;;3.33;;
54123;SDS011;55741;53.252;5.788;2023-05-10T02:30:32;5.55;;;3.70;;
54123;SDS011;55741;53.252;5.788;2023-05-10T02:33:00;5.30;;;3.95;;
54123;SDS011;55741;53.252;5.788;2023-05-10T02:35:29;3.67;;;3.33;;
54123;SDS011;55741;53.252;5.788;2023-05-10T02:37:58;4.10;;;3.70;;
54123;SDS011;55741;53.252;5.788;2023-05-10T02:40:28;5.57;;;3.92;;
54123;SDS011;55741;53.252;5.788;2023-05-10T02:42:59;4.40;;;3.45;;
54123;SDS011;55741;53.252;5.788;2023-05-10T02:45:29;4.57;;;2.50;;
54123;SDS011;55741;53.252;5.788;2023-05-10T02:47:57;3.53;;;2.80;;
54123;SDS011;55741;53.252;5.788;2023-05-10T02:50:25;3.22;;;2.80;;
54123;SDS011;55741;53.252;5.788;2023-05-10T02:52:54;3.40;;;2.67;;
54123;SDS011;55741;53.252;5.788;2023-05-10T02:55:29;5.28;;;2.92;;
54123;SDS011;55741;53.252;5.788;2023-05-10T02:58:01;3.83;;;3.13;;
54123;SDS011;55741;53.252;5.788;2023-05-10T03:00:28;4.82;;;2.53;;
54123;SDS011;55741;53.252;5.788;2023-05-10T03:02:54;4.75;;;3.00;;
54123;SDS011;55741;53.252;5.788;2023-05-10T03:05:20;7.35;;;3.85;;
54123;SDS011;55741;53.252;5.788;2023-05-10T03:07:46;8.02;;;3.72;;
54123;SDS011;55741;53.252;5.788;2023-05-10T03:10:13;5.35;;;3.60;;
54123;SDS011;55741;53.252;5.788;2023-05-10T03:15:37;8.20;;;5.35;;
54123;SDS011;55741;53.252;5.788;2023-05-10T03:18:16;8.38;;;5.90;;
54123;SDS011;55741;53.252;5.788;2023-05-10T03:20:48;8.38;;;6.10;;
54123;SDS011;55741;53.252;5.788;2023-05-10T03:26:06;10.80;;;8.20;;
54123;SDS011;55741;53.252;5.788;2023-05-10T03:28:33;9.70;;;8.50;;
54123;SDS011;55741;53.252;5.788;2023-05-10T03:31:00;10.02;;;9.10;;
54123;SDS011;55741;53.252;5.788;2023-05-10T03:33:27;11.18;;;9.32;;
54123;SDS011;55741;53.252;5.788;2023-05-10T03:35:54;10.20;;;8.65;;
54123;SDS011;55741;53.252;5.788;2023-05-10T03:38:29;9.88;;;8.93;;
54123;SDS011;55741;53.252;5.788;2023-05-10T03:40:55;10.20;;;9.30;;
54123;SDS011;55741;53.252;5.788;2023-05-10T03:43:21;9.10;;;8.25;;
54123;SDS011;55741;53.252;5.788;2023-05-10T03:45:47;9.60;;;8.68;;
54123;SDS011;55741;53.252;5.788;2023-05-10T03:48:13;11.88;;;8.88;;
54123;SDS011;55741;53.252;5.788;2023-05-10T03:50:39;9.57;;;8.57;;
54123;SDS011;55741;53.252;5.788;2023-05-10T03:53:05;10.43;;;9.43;;
54123;SDS011;55741;53.252;5.788;2023-05-10T03:55:31;10.75;;;9.75;;
54123;SDS011;55741;53.252;5.788;2023-05-10T03:57:59;11.10;;;10.02;;
54123;SDS011;55741;53.252;5.788;2023-05-10T04:00:25;14.32;;;11.18;;
54123;SDS011;55741;53.252;5.788;2023-05-10T04:02:51;10.48;;;9.38;;
54123;SDS011;55741;53.252;5.788;2023-05-10T04:05:17;5.50;;;5.00;;
54123;SDS011;55741;53.252;5.788;2023-05-10T04:07:43;5.35;;;4.85;;
54123;SDS011;55741;53.252;5.788;2023-05-10T04:10:10;4.10;;;3.70;;
54123;SDS011;55741;53.252;5.788;2023-05-10T04:12:36;3.40;;;3.10;;
54123;SDS011;55741;53.252;5.788;2023-05-10T04:15:02;3.53;;;2.60;;
54123;SDS011;55741;53.252;5.788;2023-05-10T04:17:30;3.33;;;2.50;;
54123;SDS011;55741;53.252;5.788;2023-05-10T04:19:56;3.28;;;2.55;;
54123;SDS011;55741;53.252;5.788;2023-05-10T04:22:22;3.55;;;3.25;;
54123;SDS011;55741;53.252;5.788;2023-05-10T04:24:48;4.60;;;3.08;;
54123;SDS011;55741;53.252;5.788;2023-05-10T04:27:14;3.75;;;3.10;;
54123;SDS011;55741;53.252;5.788;2023-05-10T04:29:40;4.55;;;4.10;;
54123;SDS011;55741;53.252;5.788;2023-05-10T04:32:06;4.88;;;4.47;;
54123;SDS011;55741;53.252;5.788;2023-05-10T04:34:33;5.90;;;5.30;;
54123;SDS011;55741;53.252;5.788;2023-05-10T04:36:59;7.00;;;6.30;;
54123;SDS011;55741;53.252;5.788;2023-05-10T04:39:25;8.10;;;7.30;;
54123;SDS011;55741;53.252;5.788;2023-05-10T04:41:51;9.48;;;8.32;;
54123;SDS011;55741;53.252;5.788;2023-05-10T04:44:17;11.88;;;10.27;;
54123;SDS011;55741;53.252;5.788;2023-05-10T04:46:44;13.80;;;12.35;;
54123;SDS011;55741;53.252;5.788;2023-05-10T04:49:10;16.27;;;13.98;;
54123;SDS011;55741;53.252;5.788;2023-05-10T04:51:40;16.67;;;14.20;;
54123;SDS011;55741;53.252;5.788;2023-05-10T04:54:26;18.48;;;16.58;;
54123;SDS011;55741;53.252;5.788;2023-05-10T04:57:12;18.67;;;16.45;;
54123;SDS011;55741;53.252;5.788;2023-05-10T04:59:57;18.25;;;16.25;;
54123;SDS011;55741;53.252;5.788;2023-05-10T05:02:44;14.50;;;12.98;;
54123;SDS011;55741;53.252;5.788;2023-05-10T05:05:31;11.85;;;10.65;;
54123;SDS011;55741;53.252;5.788;2023-05-10T05:08:16;11.75;;;9.63;;
54123;SDS011;55741;53.252;5.788;2023-05-10T05:11:02;11.60;;;9.77;;
54123;SDS011;55741;53.252;5.788;2023-05-10T05:13:28;10.57;;;9.43;;
54123;SDS011;55741;53.252;5.788;2023-05-10T05:15:54;10.05;;;8.75;;
54123;SDS011;55741;53.252;5.788;2023-05-10T05:18:22;10.25;;;8.85;;
54123;SDS011;55741;53.252;5.788;2023-05-10T05:20:49;11.13;;;8.70;;
54123;SDS011;55741;53.252;5.788;2023-05-10T05:23:15;10.38;;;7.60;;
54123;SDS011;55741;53.252;5.788;2023-05-10T05:25:41;10.13;;;7.47;;
54123;SDS011;55741;53.252;5.788;2023-05-10T05:28:07;11.48;;;7.93;;
54123;SDS011;55741;53.252;5.788;2023-05-10T05:30:33;9.50;;;7.03;;
54123;SDS011;55741;53.252;5.788;2023-05-10T05:32:59;8.00;;;6.47;;
54123;SDS011;55741;53.252;5.788;2023-05-10T05:35:25;7.18;;;6.32;;
54123;SDS011;55741;53.252;5.788;2023-05-10T05:37:51;9.57;;;6.90;;
54123;SDS011;55741;53.252;5.788;2023-05-10T05:40:17;8.93;;;6.78;;
54123;SDS011;55741;53.252;5.788;2023-05-10T05:42:43;8.40;;;6.20;;
54123;SDS011;55741;53.252;5.788;2023-05-10T05:45:08;9.98;;;7.20;;
54123;SDS011;55741;53.252;5.788;2023-05-10T05:47:38;9.07;;;6.30;;
54123;SDS011;55741;53.252;5.788;2023-05-10T05:50:05;8.88;;;7.22;;
54123;SDS011;55741;53.252;5.788;2023-05-10T05:52:31;7.30;;;6.40;;
54123;SDS011;55741;53.252;5.788;2023-05-10T05:54:57;8.95;;;6.47;;
54123;SDS011;55741;53.252;5.788;2023-05-10T05:57:23;7.05;;;5.95;;
54123;SDS011;55741;53.252;5.788;2023-05-10T05:59:49;6.50;;;5.80;;
54123;SDS011;55741;53.252;5.788;2023-05-10T06:02:15;8.07;;;5.05;;
54123;SDS011;55741;53.252;5.788;2023-05-10T06:04:42;7.93;;;5.13;;
54123;SDS011;55741;53.252;5.788;2023-05-10T06:07:08;5.68;;;4.03;;
54123;SDS011;55741;53.252;5.788;2023-05-10T06:09:34;5.22;;;3.33;;
54123;SDS011;55741;53.252;5.788;2023-05-10T06:11:59;5.07;;;3.50;;
54123;SDS011;55741;53.252;5.788;2023-05-10T06:14:25;5.18;;;3.72;;
54123;SDS011;55741;53.252;5.788;2023-05-10T06:16:51;4.03;;;3.08;;
54123;SDS011;55741;53.252;5.788;2023-05-10T06:19:17;3.70;;;3.10;;
54123;SDS011;55741;53.252;5.788;2023-05-10T06:21:44;5.72;;;4.10;;
54123;SDS011;55741;53.252;5.788;2023-05-10T06:24:10;5.75;;;3.45;;
54123;SDS011;55741;53.252;5.788;2023-05-10T06:26:36;3.60;;;3.10;;
54123;SDS011;55741;53.252;5.788;2023-05-10T06:29:02;4.07;;;3.25;;
54123;SDS011;55741;53.252;5.788;2023-05-10T06:31:28;4.57;;;3.30;;
54123;SDS011;55741;53.252;5.788;2023-05-10T06:33:53;5.05;;;3.60;;
54123;SDS011;55741;53.252;5.788;2023-05-10T06:36:19;5.55;;;3.47;;
54123;SDS011;55741;53.252;5.788;2023-05-10T06:38:45;6.07;;;3.88;;
54123;SDS011;55741;53.252;5.788;2023-05-10T06:41:12;8.30;;;4.35;;
54123;SDS011;55741;53.252;5.788;2023-05-10T06:43:37;6.63;;;4.20;;
54123;SDS011;55741;53.252;5.788;2023-05-10T06:46:06;7.70;;;4.10;;
54123;SDS011;55741;53.252;5.788;2023-05-10T06:48:32;6.15;;;4.15;;
54123;SDS011;55741;53.252;5.788;2023-05-10T06:50:59;6.57;;;4.15;;
54123;SDS011;55741;53.252;5.788;2023-05-10T06:53:24;5.78;;;3.80;;
54123;SDS011;55741;53.252;5.788;2023-05-10T06:55:50;5.25;;;4.00;;
54123;SDS011;55741;53.252;5.788;2023-05-10T06:58:16;6.63;;;4.25;;
54123;SDS011;55741;53.252;5.788;2023-05-10T07:00:42;4.07;;;3.35;;
54123;SDS011;55741;53.252;5.788;2023-05-10T07:03:09;4.75;;;3.53;;
54123;SDS011;55741;53.252;5.788;2023-05-10T07:05:35;6.15;;;3.15;;
54123;SDS011;55741;53.252;5.788;2023-05-10T07:08:01;5.57;;;3.50;;
54123;SDS011;55741;53.252;5.788;2023-05-10T07:10:28;5.65;;;3.17;;
54123;SDS011;55741;53.252;5.788;2023-05-10T07:12:53;6.55;;;3.97;;
54123;SDS011;55741;53.252;5.788;2023-05-10T07:15:19;3.95;;;3.53;;
54123;SDS011;55741;53.252;5.788;2023-05-10T07:17:46;5.40;;;3.60;;
54123;SDS011;55741;53.252;5.788;2023-05-10T07:20:11;9.07;;;5.03;;
54123;SDS011;55741;53.252;5.788;2023-05-10T07:22:39;9.98;;;6.43;;
54123;SDS011;55741;53.252;5.788;2023-05-10T07:25:05;9.48;;;5.57;;
54123;SDS011;55741;53.252;5.788;2023-05-10T07:27:32;7.55;;;5.20;;
54123;SDS011;55741;53.252;5.788;2023-05-10T07:29:57;9.55;;;5.53;;
54123;SDS011;55741;53.252;5.788;2023-05-10T07:32:23;7.80;;;5.38;;
54123;SDS011;55741;53.252;5.788;2023-05-10T07:34:49;7.45;;;5.45;;
54123;SDS011;55741;53.252;5.788;2023-05-10T07:37:15;8.68;;;5.57;;
54123;SDS011;55741;53.252;5.788;2023-05-10T07:39:41;10.18;;;6.47;;
54123;SDS011;55741;53.252;5.788;2023-05-10T07:42:07;8.18;;;6.90;;
54123;SDS011;55741;53.252;5.788;2023-05-10T07:44:33;8.23;;;7.22;;
54123;SDS011;55741;53.252;5.788;2023-05-10T07:46:59;11.77;;;7.88;;
54123;SDS011;55741;53.252;5.788;2023-05-10T07:49:25;9.10;;;7.57;;
54123;SDS011;55741;53.252;5.788;2023-05-10T07:51:51;11.07;;;7.93;;
54123;SDS011;55741;53.252;5.788;2023-05-10T07:54:17;10.00;;;7.60;;
54123;SDS011;55741;53.252;5.788;2023-05-10T07:56:43;8.10;;;6.35;;
54123;SDS011;55741;53.252;5.788;2023-05-10T07:59:15;9.55;;;7.20;;
54123;SDS011;55741;53.252;5.788;2023-05-10T08:01:42;9.65;;;6.25;;
54123;SDS011;55741;53.252;5.788;2023-05-10T08:04:09;7.93;;;5.97;;
54123;SDS011;55741;53.252;5.788;2023-05-10T08:06:35;6.65;;;5.03;;
54123;SDS011;55741;53.252;5.788;2023-05-10T08:09:00;7.55;;;4.25;;
54123;SDS011;55741;53.252;5.788;2023-05-10T08:11:26;6.90;;;4.38;;
54123;SDS011;55741;53.252;5.788;2023-05-10T08:13:55;5.25;;;4.00;;
54123;SDS011;55741;53.252;5.788;2023-05-10T08:16:21;5.68;;;4.32;;
54123;SDS011;55741;53.252;5.788;2023-05-10T08:18:46;4.90;;;3.90;;
54123;SDS011;55741;53.252;5.788;2023-05-10T08:21:14;7.80;;;5.13;;
54123;SDS011;55741;53.252;5.788;2023-05-10T08:23:42;5.18;;;4.10;;
54123;SDS011;55741;53.252;5.788;2023-05-10T08:26:10;5.95;;;4.15;;
54123;SDS011;55741;53.252;5.788;2023-05-10T08:28:36;6.40;;;3.83;;
54123;SDS011;55741;53.252;5.788;2023-05-10T08:31:02;6.25;;;4.80;;
54123;SDS011;55741;53.252;5.788;2023-05-10T08:33:29;7.25;;;5.80;;
54123;SDS011;55741;53.252;5.788;2023-05-10T08:35:55;6.63;;;5.38;;
54123;SDS011;55741;53.252;5.788;2023-05-10T08:38:20;10.07;;;6.30;;
54123;SDS011;55741;53.252;5.788;2023-05-10T08:40:46;10.70;;;7.72;;
54123;SDS011;55741;53.252;5.788;2023-05-10T08:43:16;10.07;;;8.68;;
54123;SDS011;55741;53.252;5.788;2023-05-10T08:45:43;11.25;;;9.77;;
54123;SDS011;55741;53.252;5.788;2023-05-10T08:48:13;10.70;;;7.70;;
54123;SDS011;55741;53.252;5.788;2023-05-10T08:50:41;10.75;;;7.70;;
54123;SDS011;55741;53.252;5.788;2023-05-10T08:53:12;10.57;;;8.52;;
54123;SDS011;55741;53.252;5.788;2023-05-10T08:55:40;12.10;;;10.25;;
54123;SDS011;55741;53.252;5.788;2023-05-10T08:58:07;12.70;;;11.38;;
54123;SDS011;55741;53.252;5.788;2023-05-10T09:00:34;13.45;;;10.63;;
54123;SDS011;55741;53.252;5.788;2023-05-10T09:03:00;12.80;;;11.32;;
54123;SDS011;55741;53.252;5.788;2023-05-10T09:05:29;16.75;;;11.73;;
54123;SDS011;55741;53.252;5.788;2023-05-10T09:07:55;13.10;;;11.35;;
54123;SDS011;55741;53.252;5.788;2023-05-10T09:10:21;14.63;;;11.68;;
54123;SDS011;55741;53.252;5.788;2023-05-10T09:12:48;15.40;;;13.00;;
54123;SDS011;55741;53.252;5.788;2023-05-10T09:15:17;15.23;;;12.57;;
54123;SDS011;55741;53.252;5.788;2023-05-10T09:17:45;13.70;;;12.18;;
54123;SDS011;55741;53.252;5.788;2023-05-10T09:20:12;13.07;;;11.75;;
54123;SDS011;55741;53.252;5.788;2023-05-10T09:22:38;17.48;;;12.32;;
54123;SDS011;55741;53.252;5.788;2023-05-10T09:25:09;15.43;;;12.27;;
54123;SDS011;55741;53.252;5.788;2023-05-10T09:27:37;16.45;;;11.13;;
54123;SDS011;55741;53.252;5.788;2023-05-10T09:30:04;13.93;;;10.13;;
54123;SDS011;55741;53.252;5.788;2023-05-10T09:32:44;16.52;;;10.82;;
54123;SDS011;55741;53.252;5.788;2023-05-10T09:35:15;13.02;;;10.38;;
54123;SDS011;55741;53.252;5.788;2023-05-10T09:37:43;13.45;;;10.90;;
54123;SDS011;55741;53.252;5.788;2023-05-10T09:40:12;15.55;;;10.68;;
54123;SDS011;55741;53.252;5.788;2023-05-10T09:42:39;15.05;;;10.30;;
54123;SDS011;55741;53.252;5.788;2023-05-10T09:45:07;12.73;;;10.15;;
54123;SDS011;55741;53.252;5.788;2023-05-10T09:47:33;13.02;;;10.70;;
54123;SDS011;55741;53.252;5.788;2023-05-10T09:50:03;11.75;;;10.10;;
54123;SDS011;55741;53.252;5.788;2023-05-10T09:52:30;8.95;;;8.05;;
54123;SDS011;55741;53.252;5.788;2023-05-10T09:55:10;13.85;;;9.77;;
54123;SDS011;55741;53.252;5.788;2023-05-10T09:57:36;12.15;;;9.70;;
54123;SDS011;55741;53.252;5.788;2023-05-10T10:00:02;11.80;;;9.10;;
54123;SDS011;55741;53.252;5.788;2023-05-10T10:02:29;14.15;;;8.80;;
54123;SDS011;55741;53.252;5.788;2023-05-10T10:04:56;12.18;;;9.02;;
54123;SDS011;55741;53.252;5.788;2023-05-10T10:07:22;13.02;;;9.77;;
54123;SDS011;55741;53.252;5.788;2023-05-10T10:09:50;11.70;;;10.23;;
54123;SDS011;55741;53.252;5.788;2023-05-10T10:12:17;14.25;;;10.35;;
54123;SDS011;55741;53.252;5.788;2023-05-10T10:14:43;15.52;;;12.45;;
54123;SDS011;55741;53.252;5.788;2023-05-10T10:17:08;14.07;;;12.55;;
54123;SDS011;55741;53.252;5.788;2023-05-10T10:19:35;13.43;;;11.80;;
54123;SDS011;55741;53.252;5.788;2023-05-10T10:22:01;13.25;;;11.85;;
54123;SDS011;55741;53.252;5.788;2023-05-10T10:24:27;14.45;;;12.63;;
54123;SDS011;55741;53.252;5.788;2023-05-10T10:26:55;13.20;;;11.80;;
54123;SDS011;55741;53.252;5.788;2023-05-10T10:29:34;13.43;;;12.05;;
54123;SDS011;55741;53.252;5.788;2023-05-10T10:32:25;11.90;;;10.05;;
54123;SDS011;55741;53.252;5.788;2023-05-10T10:35:31;11.93;;;10.70;;
54123;SDS011;55741;53.252;5.788;2023-05-10T10:37:58;11.52;;;10.32;;
54123;SDS011;55741;53.252;5.788;2023-05-10T10:42:54;11.75;;;10.02;;
54123;SDS011;55741;53.252;5.788;2023-05-10T10:45:20;11.02;;;9.32;;
54123;SDS011;55741;53.252;5.788;2023-05-10T10:47:47;9.88;;;8.65;;
54123;SDS011;55741;53.252;5.788;2023-05-10T10:50:13;10.18;;;9.18;;
54123;SDS011;55741;53.252;5.788;2023-05-10T10:52:44;9.90;;;8.90;;
54123;SDS011;55741;53.252;5.788;2023-05-10T10:55:11;9.88;;;8.88;;
54123;SDS011;55741;53.252;5.788;2023-05-10T11:02:49;10.40;;;9.40;;
54123;SDS011;55741;53.252;5.788;2023-05-10T11:05:23;11.20;;;9.32;;
54123;SDS011;55741;53.252;5.788;2023-05-10T11:08:46;11.02;;;9.93;;
54123;SDS011;55741;53.252;5.788;2023-05-10T11:13:26;10.35;;;8.88;;
54123;SDS011;55741;53.252;5.788;2023-05-10T11:16:13;9.48;;;8.52;;
54123;SDS011;55741;53.252;5.788;2023-05-10T11:19:06;10.88;;;9.30;;
54123;SDS011;55741;53.252;5.788;2023-05-10T11:21:44;10.00;;;8.95;;
54123;SDS011;55741;53.252;5.788;2023-05-10T11:24:15;10.25;;;9.23;;
54123;SDS011;55741;53.252;5.788;2023-05-10T11:26:43;11.15;;;10.05;;
54123;SDS011;55741;53.252;5.788;2023-05-10T11:29:12;10.40;;;9.32;;
54123;SDS011;55741;53.252;5.788;2023-05-10T11:31:42;12.98;;;11.65;;
54123;SDS011;55741;53.252;5.788;2023-05-10T11:34:13;12.32;;;11.02;;
54123;SDS011;55741;53.252;5.788;2023-05-10T11:36:52;13.48;;;12.07;;
54123;SDS011;55741;53.252;5.788;2023-05-10T11:39:19;13.10;;;11.75;;
54123;SDS011;55741;53.252;5.788;2023-05-10T11:41:49;14.52;;;12.68;;
54123;SDS011;55741;53.252;5.788;2023-05-10T11:44:15;14.40;;;12.70;;
54123;SDS011;55741;53.252;5.788;2023-05-10T11:46:41;18.60;;;12.73;;
54123;SDS011;55741;53.252;5.788;2023-05-10T11:49:07;14.93;;;13.43;;
54123;SDS011;55741;53.252;5.788;2023-05-10T11:51:34;17.70;;;13.77;;
54123;SDS011;55741;53.252;5.788;2023-05-10T11:54:08;16.45;;;12.63;;
54123;SDS011;55741;53.252;5.788;2023-05-10T11:56:36;12.55;;;11.25;;
54123;SDS011;55741;53.252;5.788;2023-05-10T11:59:03;13.43;;;12.00;;
54123;SDS011;55741;53.252;5.788;2023-05-10T12:01:30;12.82;;;11.35;;
54123;SDS011;55741;53.252;5.788;2023-05-10T12:03:56;15.82;;;13.32;;
54123;SDS011;55741;53.252;5.788;2023-05-10T12:06:26;13.02;;;11.68;;
54123;SDS011;55741;53.252;5.788;2023-05-10T12:08:54;13.65;;;11.93;;
54123;SDS011;55741;53.252;5.788;2023-05-10T12:11:20;15.10;;;12.27;;
54123;SDS011;55741;53.252;5.788;2023-05-10T12:13:49;13.00;;;11.68;;
54123;SDS011;55741;53.252;5.788;2023-05-10T12:16:20;11.93;;;10.15;;
54123;SDS011;55741;53.252;5.788;2023-05-10T12:18:50;10.65;;;8.82;;
54123;SDS011;55741;53.252;5.788;2023-05-10T12:21:17;13.32;;;11.15;;
54123;SDS011;55741;53.252;5.788;2023-05-10T12:23:48;12.15;;;10.95;;
54123;SDS011;55741;53.252;5.788;2023-05-10T12:26:16;13.57;;;11.57;;
54123;SDS011;55741;53.252;5.788;2023-05-10T12:28:42;11.52;;;9.68;;
54123;SDS011;55741;53.252;5.788;2023-05-10T12:31:09;11.27;;;9.85;;
54123;SDS011;55741;53.252;5.788;2023-05-10T12:33:36;13.70;;;10.70;;
54123;SDS011;55741;53.252;5.788;2023-05-10T12:36:08;12.23;;;10.38;;
54123;SDS011;55741;53.252;5.788;2023-05-10T12:38:35;12.65;;;11.02;;
54123;SDS011;55741;53.252;5.788;2023-05-10T12:41:07;10.20;;;9.20;;
54123;SDS011;55741;53.252;5.788;2023-05-10T12:43:35;13.00;;;10.00;;
54123;SDS011;55741;53.252;5.788;2023-05-10T12:46:06;10.68;;;9.57;;
54123;SDS011;55741;53.252;5.788;2023-05-10T12:48:35;15.18;;;12.20;;
54123;SDS011;55741;53.252;5.788;2023-05-10T12:51:03;12.15;;;10.25;;
54123;SDS011;55741;53.252;5.788;2023-05-10T12:53:30;11.93;;;9.80;;
54123;SDS011;55741;53.252;5.788;2023-05-10T12:55:56;12.40;;;11.10;;
54123;SDS011;55741;53.252;5.788;2023-05-10T12:58:22;10.32;;;9.27;;
54123;SDS011;55741;53.252;5.788;2023-05-10T13:00:48;13.35;;;11.93;;
54123;SDS011;55741;53.252;5.788;2023-05-10T13:03:16;12.52;;;10.85;;
54123;SDS011;55741;53.252;5.788;2023-05-10T13:05:42;13.07;;;11.73;;
54123;SDS011;55741;53.252;5.788;2023-05-10T13:08:08;12.60;;;11.30;;
54123;SDS011;55741;53.252;5.788;2023-05-10T13:10:34;12.25;;;10.95;;
54123;SDS011;55741;53.252;5.788;2023-05-10T13:13:00;13.93;;;11.18;;
54123;SDS011;55741;53.252;5.788;2023-05-10T13:15:26;11.45;;;10.25;;
54123;SDS011;55741;53.252;5.788;2023-05-10T13:17:52;13.13;;;11.82;;
54123;SDS011;55741;53.252;5.788;2023-05-10T13:20:19;12.07;;;10.88;;
54123;SDS011;55741;53.252;5.788;2023-05-10T13:22:45;10.70;;;9.63;;
54123;SDS011;55741;53.252;5.788;2023-05-10T13:25:11;8.95;;;8.05;;
54123;SDS011;55741;53.252;5.788;2023-05-10T13:27:38;9.07;;;8.25;;
54123;SDS011;55741;53.252;5.788;2023-05-10T13:30:05;8.35;;;7.65;;
54123;SDS011;55741;53.252;5.788;2023-05-10T13:32:33;7.88;;;7.07;;
54123;SDS011;55741;53.252;5.788;2023-05-10T13:35:00;7.07;;;6.47;;
54123;SDS011;55741;53.252;5.788;2023-05-10T13:37:28;7.13;;;6.43;;
54123;SDS011;55741;53.252;5.788;2023-05-10T13:39:55;6.15;;;5.55;;
54123;SDS011;55741;53.252;5.788;2023-05-10T13:42:21;6.40;;;5.80;;
54123;SDS011;55741;53.252;5.788;2023-05-10T13:44:48;7.30;;;6.55;;
54123;SDS011;55741;53.252;5.788;2023-05-10T13:47:17;7.40;;;6.70;;
54123;SDS011;55741;53.252;5.788;2023-05-10T13:49:43;7.70;;;6.90;;
54123;SDS011;55741;53.252;5.788;2023-05-10T13:52:09;8.00;;;7.20;;
54123;SDS011;55741;53.252;5.788;2023-05-10T13:54:38;6.30;;;5.70;;
54123;SDS011;55741;53.252;5.788;2023-05-10T13:57:04;6.35;;;5.70;;
54123;SDS011;55741;53.252;5.788;2023-05-10T13:59:31;6.63;;;6.03;;
54123;SDS011;55741;53.252;5.788;2023-05-10T14:01:58;6.72;;;6.13;;
54123;SDS011;55741;53.252;5.788;2023-05-10T14:04:24;8.02;;;7.22;;
54123;SDS011;55741;53.252;5.788;2023-05-10T14:06:50;6.18;;;5.57;;
54123;SDS011;55741;53.252;5.788;2023-05-10T14:09:18;7.45;;;6.63;;
54123;SDS011;55741;53.252;5.788;2023-05-10T14:11:44;7.20;;;6.50;;
54123;SDS011;55741;53.252;5.788;2023-05-10T14:14:10;5.97;;;5.40;;
54123;SDS011;55741;53.252;5.788;2023-05-10T14:16:37;6.50;;;5.90;;
54123;SDS011;55741;53.252;5.788;2023-05-10T14:19:06;6.28;;;5.50;;
54123;SDS011;55741;53.252;5.788;2023-05-10T14:21:32;6.93;;;5.40;;
54123;SDS011;55741;53.252;5.788;2023-05-10T14:23:58;6.40;;;5.80;;
54123;SDS011;55741;53.252;5.788;2023-05-10T14:26:24;6.30;;;5.80;;
54123;SDS011;55741;53.252;5.788;2023-05-10T14:28:51;5.97;;;5.38;;
54123;SDS011;55741;53.252;5.788;2023-05-10T14:31:17;6.38;;;5.72;;
54123;SDS011;55741;53.252;5.788;2023-05-10T14:33:47;6.50;;;5.90;;
54123;SDS011;55741;53.252;5.788;2023-05-10T14:36:13;5.45;;;4.78;;
54123;SDS011;55741;53.252;5.788;2023-05-10T14:38:39;7.40;;;5.60;;
54123;SDS011;55741;53.252;5.788;2023-05-10T14:41:05;5.38;;;4.88;;
54123;SDS011;55741;53.252;5.788;2023-05-10T14:43:31;5.20;;;4.70;;
54123;SDS011;55741;53.252;5.788;2023-05-10T14:45:57;5.80;;;5.03;;
54123;SDS011;55741;53.252;5.788;2023-05-10T14:48:23;5.93;;;5.32;;
54123;SDS011;55741;53.252;5.788;2023-05-10T14:50:49;5.88;;;5.28;;
54123;SDS011;55741;53.252;5.788;2023-05-10T14:53:15;6.18;;;5.57;;
54123;SDS011;55741;53.252;5.788;2023-05-10T14:55:41;6.72;;;6.05;;
54123;SDS011;55741;53.252;5.788;2023-05-10T14:58:07;6.00;;;5.45;;
54123;SDS011;55741;53.252;5.788;2023-05-10T15:00:33;6.60;;;6.00;;
54123;SDS011;55741;53.252;5.788;2023-05-10T15:02:59;6.10;;;5.57;;
54123;SDS011;55741;53.252;5.788;2023-05-10T15:05:25;6.28;;;5.55;;
54123;SDS011;55741;53.252;5.788;2023-05-10T15:07:50;6.35;;;5.45;;
54123;SDS011;55741;53.252;5.788;2023-05-10T15:10:17;5.97;;;5.10;;
54123;SDS011;55741;53.252;5.788;2023-05-10T15:12:43;6.28;;;5.30;;
54123;SDS011;55741;53.252;5.788;2023-05-10T15:15:08;6.65;;;5.47;;